Time;durP1;ratioP1;P1;durP2;ratioP2;P2;SDS_P1;SDS_P2;PMS_P1;PMS_P2;Temp;Humidity;BMP_temperature;BMP_pressure;BME280_temperature;BME280_humidity;BME280_pressure;Samples;Min_cycle;Max_cycle;Signal;HPM_P1;HPM_P2
2022/12/22 03:27:14;;;;;;;512.13;65.07;;;;;;;;;;4978160;28;20031;-75
2022/12/22 03:29:39;;;;;;;581.63;63.80;;;;;;;;;;4977694;28;20065;-75
2022/12/22 03:32:07;;;;;;;624.05;66.50;;;;;;;;;;4978004;28;20037;-76
2022/12/22 03:34:32;;;;;;;327.85;52.70;;;;;;;;;;4977868;28;20169;-74
2022/12/22 03:36:57;;;;;;;457.85;57.28;;;;;;;;;;4977252;28;20030;-75
2022/12/22 03:39:25;;;;;;;595.90;59.47;;;;;;;;;;4978058;28;20030;-75
2022/12/22 03:47:34;;;;;;;729.30;62.95;;;;;;;;;;4959429;28;20041;-74
2022/12/22 03:49:59;;;;;;;930.22;70.63;;;;;;;;;;4957615;28;20393;-74
2022/12/22 03:52:27;;;;;;;456.17;55.28;;;;;;;;;;5041189;28;20156;-75
2022/12/22 03:54:56;;;;;;;728.50;61.53;;;;;;;;;;5039765;28;20054;-75
2022/12/22 03:57:22;;;;;;;945.85;70.55;;;;;;;;;;4958375;28;20030;-74
2022/12/22 03:59:47;;;;;;;274.95;45.08;;;;;;;;;;5012907;28;20037;-75
2022/12/22 04:02:12;;;;;;;164.40;42.20;;;;;;;;;;4978774;28;20584;-75
2022/12/22 04:04:40;;;;;;;143.93;43.70;;;;;;;;;;4961131;28;20092;-74
2022/12/22 04:07:06;;;;;;;168.85;45.72;;;;;;;;;;4961925;28;20034;-75
2022/12/22 04:09:31;;;;;;;152.20;44.28;;;;;;;;;;4962036;28;20037;-74
2022/12/22 04:14:40;;;;;;;161.40;45.22;;;;;;;;;;4961581;28;20092;-75
2022/12/22 04:17:06;;;;;;;148.10;46.53;;;;;;;;;;4962351;28;20031;-74
2022/12/22 04:19:33;;;;;;;166.77;46.83;;;;;;;;;;4961623;28;20034;-75
2022/12/22 04:21:59;;;;;;;176.02;47.33;;;;;;;;;;4942209;28;20035;-74
2022/12/22 04:24:24;;;;;;;165.05;46.08;;;;;;;;;;4958590;28;20046;-74
2022/12/22 04:26:49;;;;;;;153.00;44.67;;;;;;;;;;4959962;28;20061;-75
2022/12/22 04:29:17;;;;;;;156.95;46.70;;;;;;;;;;4962453;28;20468;-75
2022/12/22 04:31:47;;;;;;;147.45;45.10;;;;;;;;;;4961912;28;20046;-76
2022/12/22 04:34:12;;;;;;;159.60;45.65;;;;;;;;;;4943774;28;20078;-75
2022/12/22 04:36:37;;;;;;;159.90;47.00;;;;;;;;;;4961468;28;20035;-73
2022/12/22 04:39:02;;;;;;;139.98;45.13;;;;;;;;;;4942767;28;20023;-75
2022/12/22 04:41:32;;;;;;;160.75;48.50;;;;;;;;;;4942278;28;20454;-74
2022/12/22 04:43:57;;;;;;;150.10;47.85;;;;;;;;;;4942820;28;20039;-74
2022/12/22 04:46:23;;;;;;;180.80;47.65;;;;;;;;;;4962190;28;20037;-75
2022/12/22 04:48:48;;;;;;;168.48;46.78;;;;;;;;;;4962626;28;20385;-75
2022/12/22 04:51:14;;;;;;;153.43;45.63;;;;;;;;;;4962336;28;20126;-75
2022/12/22 04:53:39;;;;;;;157.23;47.28;;;;;;;;;;4962609;28;20038;-75
2022/12/22 04:56:05;;;;;;;163.15;46.78;;;;;;;;;;4961073;28;20058;-75
2022/12/22 04:58:31;;;;;;;194.27;47.92;;;;;;;;;;4962323;28;20035;-75
2022/12/22 05:00:56;;;;;;;152.57;46.30;;;;;;;;;;4962644;28;20035;-75
2022/12/22 05:03:23;;;;;;;168.50;50.03;;;;;;;;;;4962345;28;20043;-75
2022/12/22 05:05:48;;;;;;;155.50;47.35;;;;;;;;;;4960380;28;20038;-74
2022/12/22 05:08:13;;;;;;;158.00;48.63;;;;;;;;;;4943266;28;20138;-75
2022/12/22 05:10:39;;;;;;;213.95;51.08;;;;;;;;;;4962480;28;20030;-74
2022/12/22 05:13:08;;;;;;;333.00;54.10;;;;;;;;;;4963548;28;20042;-75
2022/12/22 05:15:35;;;;;;;243.18;52.13;;;;;;;;;;4964214;28;20050;-75
2022/12/22 05:18:01;;;;;;;202.02;49.92;;;;;;;;;;4961483;28;20066;-76
2022/12/22 05:20:27;;;;;;;185.15;47.92;;;;;;;;;;4943752;28;20062;-75
2022/12/22 05:22:52;;;;;;;212.38;49.08;;;;;;;;;;4962245;28;20058;-75
2022/12/22 05:25:20;;;;;;;199.07;47.88;;;;;;;;;;4944590;28;20038;-75
2022/12/22 05:27:48;;;;;;;189.38;47.08;;;;;;;;;;4960654;28;20147;-75
2022/12/22 05:30:14;;;;;;;191.02;44.58;;;;;;;;;;4963534;28;20039;-74
2022/12/22 05:32:40;;;;;;;145.45;42.58;;;;;;;;;;4963320;28;20031;-74
2022/12/22 05:35:06;;;;;;;121.38;39.42;;;;;;;;;;4963879;28;20445;-74
2022/12/22 05:37:34;;;;;;;124.90;39.55;;;;;;;;;;4960418;28;20065;-74
2022/12/22 05:39:59;;;;;;;120.15;37.97;;;;;;;;;;4963517;28;20055;-75
2022/12/22 05:42:36;;;;;;;118.90;39.72;;;;;;;;;;4960216;28;20035;-74
2022/12/22 05:45:04;;;;;;;120.07;36.50;;;;;;;;;;4963696;28;20058;-75
2022/12/22 05:47:32;;;;;;;80.57;30.35;;;;;;;;;;4963396;28;20031;-74
2022/12/22 05:50:00;;;;;;;90.18;31.58;;;;;;;;;;4966426;28;20026;-75
2022/12/22 05:52:25;;;;;;;93.72;32.40;;;;;;;;;;4967015;28;20026;-74
2022/12/22 05:54:50;;;;;;;93.57;32.83;;;;;;;;;;4967154;28;20035;-74
2022/12/22 05:57:16;;;;;;;90.40;33.53;;;;;;;;;;4966778;28;20417;-74
2022/12/22 05:59:44;;;;;;;88.78;33.60;;;;;;;;;;4947649;28;20035;-75
2022/12/22 06:02:12;;;;;;;75.90;32.20;;;;;;;;;;4965315;28;20116;-75
2022/12/22 06:04:37;;;;;;;77.63;31.00;;;;;;;;;;4964662;28;20043;-75
2022/12/22 06:07:03;;;;;;;84.72;31.23;;;;;;;;;;4964445;28;20031;-75
2022/12/22 06:09:28;;;;;;;61.05;24.63;;;;;;;;;;4948487;28;20473;-75
2022/12/22 06:11:53;;;;;;;59.67;23.45;;;;;;;;;;4966992;28;20025;-74
2022/12/22 06:14:21;;;;;;;55.50;22.60;;;;;;;;;;4967999;28;20054;-74
2022/12/22 06:16:46;;;;;;;47.65;20.13;;;;;;;;;;4965004;28;20114;-75
2022/12/22 06:19:11;;;;;;;45.67;17.50;;;;;;;;;;4967546;28;20125;-74
2022/12/22 06:21:37;;;;;;;39.70;16.50;;;;;;;;;;4949080;28;20128;-75
2022/12/22 06:24:05;;;;;;;49.38;14.02;;;;;;;;;;4965741;28;20560;-75
2022/12/22 06:26:30;;;;;;;31.73;12.48;;;;;;;;;;4964177;28;20160;-75
2022/12/22 06:28:55;;;;;;;29.48;12.25;;;;;;;;;;4964968;28;20125;-73
2022/12/22 06:31:22;;;;;;;28.55;11.75;;;;;;;;;;4966943;28;20031;-74
2022/12/22 06:33:48;;;;;;;27.25;10.20;;;;;;;;;;4966419;28;20124;-76
2022/12/22 06:36:13;;;;;;;29.90;10.05;;;;;;;;;;4947559;28;20047;-75
2022/12/22 06:38:41;;;;;;;29.83;8.60;;;;;;;;;;4965101;28;20039;-75
2022/12/22 06:41:11;;;;;;;28.60;9.00;;;;;;;;;;4967154;28;20547;-74
2022/12/22 06:43:39;;;;;;;35.45;9.05;;;;;;;;;;4967111;28;20035;-75
2022/12/22 06:46:04;;;;;;;26.42;8.82;;;;;;;;;;4963945;28;20121;-73
2022/12/22 06:48:29;;;;;;;27.02;8.32;;;;;;;;;;4965736;28;20080;-75
2022/12/22 06:51:00;;;;;;;23.52;8.63;;;;;;;;;;4968814;28;20085;-75
2022/12/22 06:53:26;;;;;;;22.80;9.02;;;;;;;;;;4967845;28;20031;-76
2022/12/22 06:55:51;;;;;;;36.38;9.85;;;;;;;;;;4967857;28;20064;-75
2022/12/22 06:58:21;;;;;;;30.88;10.23;;;;;;;;;;4964783;28;20033;-74
2022/12/22 07:00:50;;;;;;;27.02;7.85;;;;;;;;;;4963440;28;20405;-76
2022/12/22 07:03:15;;;;;;;38.00;9.90;;;;;;;;;;4966048;28;20047;-75
2022/12/22 07:05:43;;;;;;;47.83;9.65;;;;;;;;;;4946647;28;20515;-75
2022/12/22 07:08:08;;;;;;;34.42;8.50;;;;;;;;;;4965363;28;20061;-75
2022/12/22 07:13:20;;;;;;;36.58;9.70;;;;;;;;;;4965117;28;20038;-74
2022/12/22 07:16:04;;;;;;;35.30;8.80;;;;;;;;;;5010954;28;20062;-74
2022/12/22 07:18:30;;;;;;;37.90;8.82;;;;;;;;;;5007841;28;20029;-74
2022/12/22 07:20:55;;;;;;;35.40;8.63;;;;;;;;;;5024117;28;20510;-74
2022/12/22 07:23:23;;;;;;;45.40;9.35;;;;;;;;;;5025334;28;20112;-74
2022/12/22 07:25:49;;;;;;;33.67;8.80;;;;;;;;;;5023671;28;20140;-74
2022/12/22 07:28:14;;;;;;;34.15;10.13;;;;;;;;;;5024060;28;20571;-75
2022/12/22 07:30:39;;;;;;;26.67;8.40;;;;;;;;;;5008322;28;20040;-74
2022/12/22 07:33:04;;;;;;;27.90;7.40;;;;;;;;;;5024649;28;20056;-75
2022/12/22 07:35:30;;;;;;;34.63;7.90;;;;;;;;;;5023662;28;20037;-74
2022/12/22 07:37:57;;;;;;;31.80;8.00;;;;;;;;;;5024289;28;20038;-74
2022/12/22 07:40:25;;;;;;;36.85;7.50;;;;;;;;;;5023071;28;20460;-74
2022/12/22 07:42:54;;;;;;;32.08;7.55;;;;;;;;;;5023993;28;20424;-74
2022/12/22 07:45:19;;;;;;;36.33;8.65;;;;;;;;;;5007127;28;20415;-75
2022/12/22 07:47:47;;;;;;;35.10;7.80;;;;;;;;;;4967782;28;20027;-75
2022/12/22 07:50:24;;;;;;;27.70;7.20;;;;;;;;;;4982717;28;20030;-76
2022/12/22 07:53:00;;;;;;;42.90;7.03;;;;;;;;;;4983315;28;20027;-74
2022/12/22 07:55:27;;;;;;;27.35;5.75;;;;;;;;;;4982770;28;20113;-74
2022/12/22 07:57:52;;;;;;;29.30;5.57;;;;;;;;;;4984169;28;20086;-75
2022/12/22 08:00:18;;;;;;;24.05;5.70;;;;;;;;;;4982027;28;20046;-74
2022/12/22 08:02:55;;;;;;;28.88;5.22;;;;;;;;;;4967164;28;20078;-74
2022/12/22 08:05:21;;;;;;;33.17;6.15;;;;;;;;;;4983230;28;20496;-75
2022/12/22 08:07:48;;;;;;;27.83;5.80;;;;;;;;;;4983959;28;20058;-74
2022/12/22 08:10:13;;;;;;;26.65;5.22;;;;;;;;;;5068203;28;20030;-74
2022/12/22 08:12:41;;;;;;;27.63;4.85;;;;;;;;;;4982318;28;20049;-74
2022/12/22 08:15:06;;;;;;;27.85;5.57;;;;;;;;;;4966260;28;20430;-74
2022/12/22 08:17:35;;;;;;;18.92;4.72;;;;;;;;;;4983654;28;20526;-75
2022/12/22 08:20:00;;;;;;;24.00;4.85;;;;;;;;;;4967548;28;20031;-73
2022/12/22 08:22:26;;;;;;;30.40;6.70;;;;;;;;;;4982718;28;20030;-75
2022/12/22 08:24:52;;;;;;;29.40;6.40;;;;;;;;;;4983678;28;20030;-74
2022/12/22 08:27:20;;;;;;;26.80;7.68;;;;;;;;;;4983037;28;20388;-73
2022/12/22 08:29:47;;;;;;;21.60;6.63;;;;;;;;;;4966634;28;20025;-75
2022/12/22 08:32:13;;;;;;;29.23;8.20;;;;;;;;;;4983202;28;20041;-75
2022/12/22 08:34:40;;;;;;;27.10;8.43;;;;;;;;;;4982551;28;20019;-73
2022/12/22 08:37:09;;;;;;;31.20;7.32;;;;;;;;;;4981610;28;20053;-74
2022/12/22 08:39:38;;;;;;;34.80;6.32;;;;;;;;;;4983144;28;20022;-74
2022/12/22 08:42:10;;;;;;;25.13;5.18;;;;;;;;;;4965220;28;20027;-74
2022/12/22 08:44:37;;;;;;;20.73;4.00;;;;;;;;;;4982719;28;20435;-73
2022/12/22 08:47:03;;;;;;;24.92;4.80;;;;;;;;;;4983830;28;20042;-74
2022/12/22 08:49:28;;;;;;;19.83;3.63;;;;;;;;;;4982855;28;20054;-73
2022/12/22 08:51:54;;;;;;;20.77;3.72;;;;;;;;;;4984333;28;20050;-73
2022/12/22 08:54:20;;;;;;;23.55;4.15;;;;;;;;;;4982623;28;20030;-73
2022/12/22 08:56:48;;;;;;;20.30;4.10;;;;;;;;;;4973320;28;20035;-74
2022/12/22 08:59:13;;;;;;;25.67;4.88;;;;;;;;;;4963195;28;20030;-74
2022/12/22 09:01:41;;;;;;;23.52;4.55;;;;;;;;;;4962677;28;20105;-73
2022/12/22 09:04:07;;;;;;;29.05;4.25;;;;;;;;;;4963611;28;20047;-75
2022/12/22 09:06:32;;;;;;;26.67;4.43;;;;;;;;;;4964415;28;20027;-74
2022/12/22 09:09:01;;;;;;;30.67;3.85;;;;;;;;;;4962705;28;20031;-74
2022/12/22 09:11:27;;;;;;;24.23;4.20;;;;;;;;;;4946041;28;20110;-74
2022/12/22 09:13:53;;;;;;;29.80;5.00;;;;;;;;;;4963195;28;20035;-73
2022/12/22 09:16:19;;;;;;;24.05;3.85;;;;;;;;;;4963359;28;20042;-74
2022/12/22 09:18:44;;;;;;;17.98;4.25;;;;;;;;;;4945976;28;20093;-75
2022/12/22 09:21:10;;;;;;;25.42;4.63;;;;;;;;;;4963529;28;20503;-74
2022/12/22 09:23:37;;;;;;;23.92;4.25;;;;;;;;;;4961197;28;20441;-73
2022/12/22 09:26:09;;;;;;;20.73;4.78;;;;;;;;;;4962470;28;20041;-74
2022/12/22 09:28:35;;;;;;;25.02;4.38;;;;;;;;;;4962566;28;20508;-74
2022/12/22 09:31:00;;;;;;;15.35;3.72;;;;;;;;;;4963507;28;20063;-72
2022/12/22 09:33:25;;;;;;;22.45;3.95;;;;;;;;;;4963313;28;20038;-73
2022/12/22 09:35:51;;;;;;;17.42;3.45;;;;;;;;;;4963066;28;20043;-73
2022/12/22 09:38:16;;;;;;;17.85;3.65;;;;;;;;;;4962123;28;20054;-74
2022/12/22 09:40:41;;;;;;;34.78;3.95;;;;;;;;;;4945212;28;20523;-74
2022/12/22 09:43:09;;;;;;;18.77;3.80;;;;;;;;;;4961801;28;20035;-74
2022/12/22 09:45:36;;;;;;;28.20;4.13;;;;;;;;;;4961735;28;20035;-73
2022/12/22 09:48:04;;;;;;;24.60;3.95;;;;;;;;;;4963183;28;20041;-74
2022/12/22 09:50:31;;;;;;;28.20;4.10;;;;;;;;;;4963311;28;20500;-74
2022/12/22 09:52:58;;;;;;;15.77;3.70;;;;;;;;;;4963746;28;20396;-74
2022/12/22 09:55:24;;;;;;;17.23;3.83;;;;;;;;;;4977272;28;20116;-74
2022/12/22 09:57:50;;;;;;;20.10;3.67;;;;;;;;;;4964052;28;20031;-73
2022/12/22 10:00:16;;;;;;;23.75;4.10;;;;;;;;;;4962031;28;20115;-74
2022/12/22 10:02:49;;;;;;;21.02;4.55;;;;;;;;;;4964359;28;20093;-73
2022/12/22 10:05:27;;;;;;;22.45;4.20;;;;;;;;;;4983668;28;20433;-73
2022/12/22 10:07:52;;;;;;;24.50;4.82;;;;;;;;;;4984216;28;20425;-74
2022/12/22 10:10:27;;;;;;;20.27;4.50;;;;;;;;;;4985204;28;20065;-73
2022/12/22 10:12:53;;;;;;;28.60;4.88;;;;;;;;;;4983336;28;20476;-75
2022/12/22 10:15:19;;;;;;;22.88;4.70;;;;;;;;;;4983633;28;20042;-73
2022/12/22 10:17:44;;;;;;;26.02;5.45;;;;;;;;;;4982750;28;20098;-74
2022/12/22 10:20:26;;;;;;;20.90;4.55;;;;;;;;;;4983018;28;20034;-73
2022/12/22 10:22:53;;;;;;;23.42;3.90;;;;;;;;;;4984587;28;20038;-73
2022/12/22 10:25:42;;;;;;;30.63;4.82;;;;;;;;;;4982784;28;20064;-73
2022/12/22 10:28:11;;;;;;;19.92;4.30;;;;;;;;;;4988122;28;20027;-74
2022/12/22 10:30:37;;;;;;;21.33;3.90;;;;;;;;;;4980062;28;20030;-75
2022/12/22 10:33:05;;;;;;;26.35;4.15;;;;;;;;;;4984335;28;20080;-73
2022/12/22 10:35:45;;;;;;;26.08;4.28;;;;;;;;;;4986436;28;20038;-75
2022/12/22 10:38:22;;;;;;;20.48;3.30;;;;;;;;;;4986529;28;20510;-74
2022/12/22 10:40:53;;;;;;;15.82;3.22;;;;;;;;;;4987137;28;20098;-74
2022/12/22 10:43:29;;;;;;;27.83;3.70;;;;;;;;;;4986517;28;20037;-73
2022/12/22 10:45:55;;;;;;;30.08;4.07;;;;;;;;;;4986774;28;20035;-75
2022/12/22 10:48:24;;;;;;;27.52;3.78;;;;;;;;;;4988173;28;20029;-75
2022/12/22 10:50:52;;;;;;;25.67;4.25;;;;;;;;;;4988387;28;20496;-74
2022/12/22 10:53:17;;;;;;;30.45;4.30;;;;;;;;;;4985511;28;20038;-74
2022/12/22 10:55:43;;;;;;;23.60;3.45;;;;;;;;;;4987745;28;20072;-75
2022/12/22 10:58:18;;;;;;;22.42;3.28;;;;;;;;;;4968894;28;20110;-75
2022/12/22 11:00:46;;;;;;;24.08;3.83;;;;;;;;;;4987698;28;20026;-74
2022/12/22 11:03:27;;;;;;;21.45;3.90;;;;;;;;;;4987801;28;20442;-74
2022/12/22 11:05:52;;;;;;;21.40;3.88;;;;;;;;;;4987776;28;20026;-74
2022/12/22 11:08:18;;;;;;;34.47;4.95;;;;;;;;;;4987298;28;20049;-74
2022/12/22 11:10:48;;;;;;;28.20;3.78;;;;;;;;;;4987228;28;20038;-75
2022/12/22 11:13:16;;;;;;;21.27;3.50;;;;;;;;;;4968191;28;20084;-74
2022/12/22 11:16:01;;;;;;;30.83;5.10;;;;;;;;;;4985673;28;20591;-74
2022/12/22 11:18:26;;;;;;;19.50;3.22;;;;;;;;;;4984405;28;20038;-73
2022/12/22 11:20:51;;;;;;;25.50;3.67;;;;;;;;;;4986867;28;20084;-73
2022/12/22 11:23:25;;;;;;;35.60;4.32;;;;;;;;;;4987943;28;20031;-74
2022/12/22 11:26:06;;;;;;;38.95;4.70;;;;;;;;;;4988023;28;20030;-73
2022/12/22 11:28:49;;;;;;;26.92;3.65;;;;;;;;;;4987442;28;20034;-73
2022/12/22 11:31:34;;;;;;;24.98;4.72;;;;;;;;;;4986255;28;20030;-73
2022/12/22 11:34:19;;;;;;;21.73;4.05;;;;;;;;;;4986732;28;20052;-75
2022/12/22 11:37:11;;;;;;;22.52;4.40;;;;;;;;;;4985732;28;20114;-74
2022/12/22 11:39:43;;;;;;;37.28;4.47;;;;;;;;;;4985502;28;20399;-72
2022/12/22 11:42:20;;;;;;;22.17;5.32;;;;;;;;;;4982133;28;20037;-73
2022/12/22 11:45:06;;;;;;;23.27;4.88;;;;;;;;;;4986921;28;20038;-73
2022/12/22 11:47:39;;;;;;;24.17;5.78;;;;;;;;;;4991114;28;20106;-74
2022/12/22 11:50:22;;;;;;;23.75;5.95;;;;;;;;;;4984686;28;20034;-73
2022/12/22 11:53:14;;;;;;;27.55;5.90;;;;;;;;;;4968777;28;20023;-73
2022/12/22 11:55:42;;;;;;;;;;;;;;;;;;4985545;28;20041;-73
2022/12/22 11:58:22;;;;;;;23.23;5.20;;;;;;;;;;4987378;28;19906;-74
2022/12/22 12:01:02;;;;;;;28.58;6.88;;;;;;;;;;4984981;28;20132;-75
2022/12/22 12:03:40;;;;;;;29.10;5.45;;;;;;;;;;4981140;28;20112;-74
2022/12/22 12:06:16;;;;;;;31.98;5.65;;;;;;;;;;4966111;28;20075;-75
2022/12/22 12:08:51;;;;;;;38.92;7.60;;;;;;;;;;4964467;28;20108;-74
2022/12/22 12:11:39;;;;;;;30.05;7.30;;;;;;;;;;4964936;28;20101;-76
2022/12/22 12:14:27;;;;;;;37.55;11.25;;;;;;;;;;4965121;28;20462;-74
2022/12/22 12:17:08;;;;;;;37.67;13.90;;;;;;;;;;4970057;28;20124;-75
2022/12/22 12:19:43;;;;;;;41.33;13.07;;;;;;;;;;4964812;28;20104;-73
2022/12/22 12:22:22;;;;;;;48.53;13.68;;;;;;;;;;4964150;28;20058;-74
2022/12/22 12:24:50;;;;;;;50.08;15.30;;;;;;;;;;4961221;28;20035;-74
2022/12/22 12:27:21;;;;;;;40.05;14.82;;;;;;;;;;4960919;28;20045;-74
2022/12/22 12:29:59;;;;;;;47.60;15.20;;;;;;;;;;4960730;28;20053;-73
2022/12/22 12:32:28;;;;;;;34.20;12.68;;;;;;;;;;4962034;28;20511;-74
2022/12/22 12:35:00;;;;;;;43.97;12.82;;;;;;;;;;4959692;28;20436;-72
2022/12/22 12:37:31;;;;;;;41.30;13.18;;;;;;;;;;4958674;28;20073;-73
2022/12/22 12:40:15;;;;;;;32.83;13.45;;;;;;;;;;4956981;28;20027;-72
2022/12/22 12:42:44;;;;;;;38.10;13.50;;;;;;;;;;4958305;28;20511;-72
2022/12/22 12:45:28;;;;;;;33.85;13.27;;;;;;;;;;4958669;28;20031;-72
2022/12/22 12:48:13;;;;;;;31.60;14.32;;;;;;;;;;4960680;28;20041;-74
2022/12/22 12:50:38;;;;;;;35.10;13.52;;;;;;;;;;4960985;28;20030;-73
2022/12/22 12:53:05;;;;;;;34.83;13.43;;;;;;;;;;4978606;28;20034;-74
2022/12/22 12:55:52;;;;;;;38.20;12.57;;;;;;;;;;4978635;28;20034;-74
2022/12/22 12:58:39;;;;;;;32.88;12.75;;;;;;;;;;4978352;28;20501;-75
2022/12/22 13:01:23;;;;;;;34.05;14.23;;;;;;;;;;4981038;28;20555;-73
2022/12/22 13:03:48;;;;;;;42.55;15.45;;;;;;;;;;4980882;28;20061;-75
2022/12/22 13:06:34;;;;;;;37.97;15.57;;;;;;;;;;4980051;28;20058;-74
2022/12/22 13:09:02;;;;;;;43.05;14.10;;;;;;;;;;4982325;28;20035;-74
2022/12/22 13:11:37;;;;;;;45.33;12.75;;;;;;;;;;4982027;28;20043;-74
2022/12/22 13:14:03;;;;;;;32.95;11.95;;;;;;;;;;4963741;28;20057;-74
2022/12/22 13:16:32;;;;;;;46.50;12.02;;;;;;;;;;4980021;28;20496;-73
2022/12/22 13:19:01;;;;;;;35.13;11.13;;;;;;;;;;4981185;28;20042;-73
2022/12/22 13:21:28;;;;;;;39.53;10.55;;;;;;;;;;4981360;28;20050;-73
2022/12/22 13:23:53;;;;;;;30.77;10.30;;;;;;;;;;4980499;28;20033;-72
2022/12/22 13:26:26;;;;;;;26.38;10.18;;;;;;;;;;4981773;28;20039;-74
2022/12/22 13:29:08;;;;;;;32.38;11.63;;;;;;;;;;4980589;28;20060;-73
2022/12/22 13:31:41;;;;;;;30.75;11.10;;;;;;;;;;4980842;28;20054;-73
2022/12/22 13:34:25;;;;;;;41.70;12.70;;;;;;;;;;4978451;28;20037;-73
2022/12/22 13:36:51;;;;;;;40.97;14.15;;;;;;;;;;4979973;28;20045;-73
2022/12/22 13:39:17;;;;;;;44.65;21.65;;;;;;;;;;4980201;28;20031;-73
2022/12/22 13:41:47;;;;;;;35.90;20.02;;;;;;;;;;4978276;28;20597;-74
2022/12/22 13:44:23;;;;;;;42.13;23.10;;;;;;;;;;4962363;28;20054;-74
2022/12/22 13:46:49;;;;;;;40.17;22.83;;;;;;;;;;4942348;28;20490;-75
2022/12/22 13:49:16;;;;;;;35.67;19.92;;;;;;;;;;4945966;28;20042;-73
2022/12/22 13:51:41;;;;;;;26.27;13.60;;;;;;;;;;4959638;28;20540;-74
2022/12/22 13:54:15;;;;;;;25.83;15.13;;;;;;;;;;4960509;28;20114;-73
2022/12/22 13:56:47;;;;;;;27.38;14.45;;;;;;;;;;4942447;28;20042;-75
2022/12/22 13:59:32;;;;;;;40.08;21.52;;;;;;;;;;4957485;28;20515;-73
2022/12/22 14:02:04;;;;;;;49.67;24.83;;;;;;;;;;4958150;28;20031;-73
2022/12/22 14:04:29;;;;;;;;;;;;;;;;;;4951793;28;20031;-73
2022/12/22 14:06:55;;;;;;;44.38;23.98;;;;;;;;;;5042650;28;19921;-74
2022/12/22 14:09:25;;;;;;;46.40;27.15;;;;;;;;;;4961011;28;20089;-74
2022/12/22 14:11:56;;;;;;;43.75;21.83;;;;;;;;;;4967321;28;20422;-74
2022/12/22 14:14:29;;;;;;;49.40;26.58;;;;;;;;;;4966524;28;20047;-74
2022/12/22 14:16:57;;;;;;;56.78;30.17;;;;;;;;;;4965659;28;20123;-74
2022/12/22 14:19:27;;;;;;;57.10;27.45;;;;;;;;;;4967645;28;20038;-73
2022/12/22 14:21:58;;;;;;;54.13;29.48;;;;;;;;;;4964405;28;20187;-73
2022/12/22 14:24:27;;;;;;;50.45;24.73;;;;;;;;;;4966789;28;20035;-75
2022/12/22 14:26:53;;;;;;;47.33;23.08;;;;;;;;;;4966498;28;20034;-74
2022/12/22 14:29:22;;;;;;;54.78;32.72;;;;;;;;;;4965007;28;20084;-73
2022/12/22 14:31:58;;;;;;;57.50;34.50;;;;;;;;;;4964280;28;20027;-73
2022/12/22 14:34:25;;;;;;;48.20;28.80;;;;;;;;;;4948433;28;20129;-74
2022/12/22 14:36:51;;;;;;;53.30;30.90;;;;;;;;;;4966851;28;20049;-74
2022/12/22 14:39:26;;;;;;;57.95;31.90;;;;;;;;;;4959151;28;20126;-73
2022/12/22 14:41:53;;;;;;;45.25;28.17;;;;;;;;;;4962226;28;20027;-74
2022/12/22 14:44:20;;;;;;;45.80;25.35;;;;;;;;;;4962973;28;20126;-74
2022/12/22 14:47:04;;;;;;;47.95;26.02;;;;;;;;;;4954453;28;20073;-74
2022/12/22 14:49:30;;;;;;;54.15;30.55;;;;;;;;;;4955250;28;20564;-74
2022/12/22 14:52:02;;;;;;;50.30;26.73;;;;;;;;;;4959582;28;20230;-73
2022/12/22 14:54:29;;;;;;;55.03;29.00;;;;;;;;;;4960381;28;20038;-73
2022/12/22 14:56:59;;;;;;;55.58;34.33;;;;;;;;;;4962193;28;20038;-74
2022/12/22 14:59:26;;;;;;;;;;;;;;;;;;4961093;28;20407;-73
2022/12/22 15:02:03;;;;;;;57.97;35.35;;;;;;;;;;4957620;28;19917;-73
2022/12/22 15:04:30;;;;;;;67.32;39.38;;;;;;;;;;4954642;28;20125;-73
2022/12/22 15:07:15;;;;;;;75.32;38.33;;;;;;;;;;4940226;28;20539;-74
2022/12/22 15:09:40;;;;;;;69.07;40.13;;;;;;;;;;4960247;28;20027;-74
2022/12/22 15:12:09;;;;;;;77.78;42.45;;;;;;;;;;4958899;28;20031;-74
2022/12/22 15:14:35;;;;;;;62.30;36.67;;;;;;;;;;4956636;28;20038;-73
2022/12/22 15:17:01;;;;;;;58.58;32.38;;;;;;;;;;4959717;28;20566;-72
2022/12/22 15:19:28;;;;;;;55.75;30.67;;;;;;;;;;4924531;28;20030;-73
2022/12/22 15:21:54;;;;;;;54.50;31.98;;;;;;;;;;4953979;28;20027;-73
2022/12/22 15:24:19;;;;;;;56.75;30.30;;;;;;;;;;4942904;28;20566;-75
2022/12/22 15:26:45;;;;;;;61.63;30.42;;;;;;;;;;4962480;28;20121;-74
2022/12/22 15:29:11;;;;;;;64.10;32.25;;;;;;;;;;4961311;28;20427;-74
2022/12/22 15:31:37;;;;;;;74.40;34.25;;;;;;;;;;4956948;28;20027;-73
2022/12/22 15:34:09;;;;;;;61.97;32.15;;;;;;;;;;4958930;28;20114;-74
2022/12/22 15:36:36;;;;;;;75.20;38.00;;;;;;;;;;4957802;28;20038;-74
2022/12/22 15:39:01;;;;;;;68.57;35.38;;;;;;;;;;4960730;28;20126;-74
2022/12/22 15:41:27;;;;;;;77.05;39.83;;;;;;;;;;4958665;28;20027;-74
2022/12/22 15:43:52;;;;;;;77.78;37.33;;;;;;;;;;4957929;28;20078;-73
2022/12/22 15:46:17;;;;;;;71.88;36.60;;;;;;;;;;4969591;28;20450;-73
2022/12/22 15:48:45;;;;;;;85.70;39.25;;;;;;;;;;4919945;28;20031;-73
2022/12/22 15:51:16;;;;;;;85.82;40.25;;;;;;;;;;4940769;28;20541;-72
2022/12/22 15:53:42;;;;;;;89.35;38.10;;;;;;;;;;4938317;28;20525;-73
2022/12/22 15:56:11;;;;;;;87.47;39.97;;;;;;;;;;4920851;28;20047;-73
2022/12/22 15:58:36;;;;;;;73.25;37.05;;;;;;;;;;4941191;28;20042;-74
2022/12/22 16:01:02;;;;;;;72.20;37.17;;;;;;;;;;4936133;28;20027;-74
2022/12/22 16:03:27;;;;;;;75.53;37.63;;;;;;;;;;4947452;28;20046;-75
2022/12/22 16:05:55;;;;;;;70.68;36.13;;;;;;;;;;4962384;28;20045;-74
2022/12/22 16:08:28;;;;;;;68.65;35.17;;;;;;;;;;4958344;28;20466;-73
2022/12/22 16:10:56;;;;;;;86.70;41.75;;;;;;;;;;4959997;28;20602;-73
2022/12/22 16:13:25;;;;;;;74.78;39.58;;;;;;;;;;4958817;28;20031;-72
2022/12/22 16:15:55;;;;;;;78.90;38.80;;;;;;;;;;4957200;28;20465;-73
2022/12/22 16:18:21;;;;;;;73.55;38.92;;;;;;;;;;4957765;28;20044;-72
2022/12/22 16:20:46;;;;;;;72.72;37.20;;;;;;;;;;4935901;28;20189;-71
2022/12/22 16:23:15;;;;;;;68.22;37.95;;;;;;;;;;4950348;28;20039;-71
2022/12/22 16:25:42;;;;;;;68.60;38.08;;;;;;;;;;4950530;28;20035;-72
2022/12/22 16:28:09;;;;;;;68.65;37.28;;;;;;;;;;4951429;28;20030;-71
2022/12/22 16:30:35;;;;;;;71.00;37.63;;;;;;;;;;4947260;28;20497;-72
2022/12/22 16:33:00;;;;;;;72.60;37.50;;;;;;;;;;4950366;28;20094;-71
2022/12/22 16:35:27;;;;;;;68.70;36.50;;;;;;;;;;4945583;28;20066;-70
2022/12/22 16:37:57;;;;;;;69.35;37.92;;;;;;;;;;4944503;28;20039;-71
2022/12/22 16:40:22;;;;;;;76.32;38.80;;;;;;;;;;4943125;28;20035;-71
2022/12/22 16:43:09;;;;;;;69.45;36.28;;;;;;;;;;4939517;28;20069;-72
2022/12/22 16:45:39;;;;;;;67.32;36.42;;;;;;;;;;4940144;28;20361;-74
2022/12/22 16:48:07;;;;;;;71.53;37.20;;;;;;;;;;4940108;28;20442;-70
2022/12/22 16:50:32;;;;;;;67.15;33.92;;;;;;;;;;4939075;28;20437;-72
2022/12/22 16:53:02;;;;;;;64.35;33.70;;;;;;;;;;4940761;28;20690;-70
2022/12/22 16:55:27;;;;;;;67.35;35.58;;;;;;;;;;4940473;28;20039;-72
2022/12/22 16:57:53;;;;;;;70.50;36.17;;;;;;;;;;4938635;28;20248;-71
2022/12/22 17:00:22;;;;;;;69.40;35.97;;;;;;;;;;4939995;28;20095;-72
2022/12/22 17:02:51;;;;;;;69.95;35.10;;;;;;;;;;4940021;28;20039;-71
2022/12/22 17:05:24;;;;;;;67.90;35.63;;;;;;;;;;4940287;28;20571;-71
2022/12/22 17:07:53;;;;;;;72.75;36.53;;;;;;;;;;4940479;28;20049;-72
2022/12/22 17:10:19;;;;;;;77.35;38.50;;;;;;;;;;4940261;28;20103;-72
2022/12/22 17:12:44;;;;;;;85.20;43.40;;;;;;;;;;4941108;28;20156;-72
2022/12/22 17:15:18;;;;;;;89.85;42.20;;;;;;;;;;4940575;28;20055;-71
2022/12/22 17:17:43;;;;;;;75.63;36.05;;;;;;;;;;4940333;28;20103;-73
2022/12/22 17:20:16;;;;;;;77.35;36.53;;;;;;;;;;4954982;28;20914;-71
2022/12/22 17:22:43;;;;;;;73.45;35.95;;;;;;;;;;4940148;28;20096;-73
2022/12/22 17:25:13;;;;;;;78.95;36.88;;;;;;;;;;4938170;28;20122;-71
2022/12/22 17:27:39;;;;;;;83.63;41.00;;;;;;;;;;4940700;28;20030;-72
2022/12/22 17:30:05;;;;;;;81.97;38.97;;;;;;;;;;4953984;28;20054;-71
2022/12/22 17:32:31;;;;;;;82.82;41.88;;;;;;;;;;4940516;28;20039;-70
2022/12/22 17:34:56;;;;;;;84.65;39.80;;;;;;;;;;4940670;28;20031;-72
2022/12/22 17:37:22;;;;;;;85.55;38.20;;;;;;;;;;4938678;28;20035;-72
2022/12/22 17:39:53;;;;;;;81.70;38.90;;;;;;;;;;4937997;28;20053;-72
2022/12/22 17:42:20;;;;;;;82.90;38.85;;;;;;;;;;4940579;28;20035;-72
2022/12/22 17:44:46;;;;;;;83.03;37.03;;;;;;;;;;4955383;28;20176;-69
2022/12/22 17:47:15;;;;;;;81.68;37.63;;;;;;;;;;4941667;28;20300;-71
2022/12/22 17:49:41;;;;;;;82.32;38.53;;;;;;;;;;4943851;28;20114;-72
2022/12/22 17:52:20;;;;;;;82.10;38.67;;;;;;;;;;4944147;28;20023;-72
2022/12/22 17:54:46;;;;;;;119.30;55.67;;;;;;;;;;4943520;28;20401;-72
2022/12/22 17:57:18;;;;;;;80.82;37.25;;;;;;;;;;4944356;28;20066;-72
2022/12/22 17:59:43;;;;;;;101.53;45.13;;;;;;;;;;4955388;28;20031;-73
2022/12/22 18:02:16;;;;;;;102.57;48.05;;;;;;;;;;4943639;28;20440;-72
2022/12/22 18:04:41;;;;;;;95.88;40.47;;;;;;;;;;4960502;28;20054;-73
2022/12/22 18:07:08;;;;;;;107.25;42.60;;;;;;;;;;4961625;28;20461;-73
2022/12/22 18:09:34;;;;;;;120.20;41.83;;;;;;;;;;4962087;28;20034;-73